createdAt,value
2019-02-27T00:00:15.509Z,5.92
2019-02-27T00:02:48.550Z,6.75
2019-02-27T00:05:21.637Z,5.10
2019-02-27T00:07:54.847Z,6.75
2019-02-27T00:10:28.896Z,6.83
2019-02-27T00:13:02.258Z,6.22
2019-02-27T00:15:37.740Z,7.03
2019-02-27T00:18:10.189Z,5.67
2019-02-27T00:20:43.803Z,6.33
2019-02-27T00:23:17.235Z,5.83
2019-02-27T00:25:50.004Z,5.92
2019-02-27T00:28:23.891Z,6.33
2019-02-27T00:30:57.587Z,6.78
2019-02-27T00:36:02.012Z,5.35
2019-02-27T00:38:34.692Z,6.17
2019-02-27T00:41:12.046Z,5.83
2019-02-27T00:43:42.117Z,5.70
2019-02-27T00:46:15.274Z,5.17
2019-02-27T00:48:48.472Z,5.45
2019-02-27T00:51:22.193Z,5.95
2019-02-27T00:53:55.933Z,5.92
2019-02-27T00:56:31.998Z,6.45
2019-02-27T00:59:04.691Z,4.53
2019-02-27T01:01:37.888Z,5.23
2019-02-27T01:04:11.138Z,4.75
2019-02-27T01:06:45.059Z,5.90
2019-02-27T01:09:20.378Z,4.72
2019-02-27T01:11:53.749Z,4.40
2019-02-27T01:14:26.232Z,5.33
2019-02-27T01:16:59.099Z,4.50
2019-02-27T01:19:32.665Z,5.15
2019-02-27T01:22:05.598Z,5.25
2019-02-27T01:24:38.657Z,5.05
2019-02-27T01:27:11.813Z,5.08
2019-02-27T01:29:45.690Z,5.50
2019-02-27T01:32:19.588Z,4.95
2019-02-27T01:34:53.106Z,4.83
2019-02-27T01:37:25.964Z,5.62
2019-02-27T01:39:58.707Z,5.80
2019-02-27T01:42:32.973Z,5.80
2019-02-27T01:45:09.241Z,6.62
2019-02-27T01:47:43.129Z,5.30
2019-02-27T01:50:34.131Z,5.43
2019-02-27T01:53:09.075Z,5.17
2019-02-27T01:55:41.858Z,6.13
2019-02-27T01:58:14.611Z,5.72
2019-02-27T02:00:48.152Z,4.97
2019-02-27T02:03:21.497Z,4.97
2019-02-27T02:05:58.843Z,5.67
2019-02-27T02:08:29.212Z,5.87
2019-02-27T02:11:02.129Z,5.00
2019-02-27T02:13:53.787Z,5.75
2019-02-27T02:16:47.223Z,5.17
2019-02-27T02:23:20.548Z,3.35
2019-02-27T02:26:43.849Z,3.90
2019-02-27T02:30:07.470Z,4.03
2019-02-27T02:33:31.053Z,3.95
2019-02-27T02:37:03.805Z,5.50
2019-02-27T02:40:04.512Z,4.03
2019-02-27T02:43:41.575Z,4.23
2019-02-27T02:46:55.061Z,4.83
2019-02-27T02:50:29.045Z,4.83
2019-02-27T02:54:01.728Z,4.10
2019-02-27T02:57:05.084Z,3.53
2019-02-27T03:00:27.237Z,4.17
2019-02-27T03:04:06.036Z,4.60
2019-02-27T03:07:30.677Z,3.70
2019-02-27T03:10:20.943Z,3.20
2019-02-27T03:13:47.365Z,3.07
2019-02-27T03:17:53.695Z,2.17
2019-02-27T03:21:27.376Z,1.80
2019-02-27T03:24:50.787Z,2.62
2019-02-27T03:28:27.172Z,3.90
2019-02-27T03:31:42.341Z,3.03
2019-02-27T03:35:18.354Z,3.83
2019-02-27T03:38:24.099Z,2.37
2019-02-27T03:41:36.176Z,3.17
2019-02-27T03:45:09.991Z,2.27
2019-02-27T03:48:35.259Z,3.65
2019-02-27T03:51:48.061Z,3.43
2019-02-27T03:54:59.337Z,2.67
2019-02-27T03:58:30.643Z,4.47
2019-02-27T04:02:12.074Z,4.23
2019-02-27T04:05:53.989Z,3.87
2019-02-27T04:08:55.352Z,4.70
2019-02-27T04:11:28.059Z,3.10
2019-02-27T04:14:04.714Z,3.70
2019-02-27T04:16:38.141Z,4.50
2019-02-27T04:19:10.585Z,3.77
2019-02-27T04:21:43.964Z,4.35
2019-02-27T04:26:48.131Z,3.22
2019-02-27T04:29:21.879Z,4.90
2019-02-27T04:31:54.413Z,6.43
2019-02-27T04:34:27.117Z,5.92
2019-02-27T04:36:59.808Z,4.03
2019-02-27T04:39:32.900Z,4.80
2019-02-27T04:42:05.435Z,4.60
2019-02-27T04:44:39.054Z,5.17
2019-02-27T04:47:12.125Z,5.07
2019-02-27T04:49:44.757Z,5.17
2019-02-27T04:52:18.055Z,4.40
2019-02-27T04:57:22.365Z,3.87
2019-02-27T04:59:55.763Z,4.45
2019-02-27T05:02:28.886Z,5.60
2019-02-27T05:05:01.772Z,5.30
2019-02-27T05:07:34.894Z,4.77
2019-02-27T05:10:07.938Z,5.05
2019-02-27T05:15:11.841Z,3.55
2019-02-27T05:17:45.313Z,4.45
2019-02-27T05:20:17.795Z,4.63
2019-02-27T05:22:50.803Z,5.12
2019-02-27T05:25:23.596Z,4.50
2019-02-27T05:28:01.017Z,4.37
2019-02-27T05:30:31.621Z,6.20
2019-02-27T05:35:35.655Z,2.47
2019-02-27T05:38:08.210Z,5.03
2019-02-27T05:40:41.396Z,5.25
2019-02-27T05:43:15.522Z,4.27
2019-02-27T05:45:47.929Z,4.53
2019-02-27T05:48:21.052Z,3.85
2019-02-27T05:50:53.756Z,5.60
2019-02-27T05:53:27.238Z,5.50
2019-02-27T05:55:59.614Z,5.77
2019-02-27T05:58:33.120Z,5.45
2019-02-27T06:01:05.902Z,5.70
2019-02-27T06:03:39.329Z,5.25
2019-02-27T06:06:12.453Z,4.63
2019-02-27T06:08:45.586Z,6.37
2019-02-27T06:13:48.967Z,3.98
2019-02-27T06:16:22.299Z,6.05
2019-02-27T06:21:31.539Z,2.35
2019-02-27T06:24:04.645Z,5.27
2019-02-27T06:29:09.899Z,3.70
2019-02-27T06:34:15.240Z,3.37
2019-02-27T06:36:49.553Z,5.87
2019-02-27T06:39:22.380Z,5.70
2019-02-27T06:41:55.125Z,4.78
2019-02-27T06:44:29.019Z,6.42
2019-02-27T06:47:01.469Z,6.90
2019-02-27T06:49:34.579Z,6.85
2019-02-27T06:52:09.264Z,7.22
2019-02-27T06:54:42.376Z,6.07
2019-02-27T06:57:15.568Z,6.35
2019-02-27T07:02:21.711Z,4.72
2019-02-27T07:04:53.701Z,5.77
2019-02-27T07:07:28.818Z,7.33
2019-02-27T07:10:01.891Z,5.77
2019-02-27T07:12:35.342Z,7.00
2019-02-27T07:15:10.276Z,6.27
2019-02-27T07:17:44.496Z,6.83
2019-02-27T07:20:17.573Z,6.42
2019-02-27T07:25:22.445Z,4.65
2019-02-27T07:27:55.559Z,7.87
2019-02-27T07:30:28.342Z,7.00
2019-02-27T07:33:00.842Z,6.50
2019-02-27T07:35:34.144Z,6.03
2019-02-27T07:38:07.141Z,7.03
2019-02-27T07:40:42.752Z,7.08
2019-02-27T07:43:14.422Z,6.70
2019-02-27T07:45:56.086Z,6.72
2019-02-27T07:48:29.458Z,7.23
2019-02-27T07:52:06.961Z,7.33
2019-02-27T07:54:50.467Z,6.70
2019-02-27T07:57:23.003Z,7.40
2019-02-27T07:59:56.830Z,8.55
2019-02-27T08:02:29.901Z,8.67
2019-02-27T08:05:02.170Z,7.93
2019-02-27T08:07:35.967Z,7.67
2019-02-27T08:10:12.283Z,7.70
2019-02-27T08:12:45.353Z,7.73
2019-02-27T08:17:51.118Z,8.07
2019-02-27T08:20:23.590Z,9.07
2019-02-27T08:22:57.967Z,9.70
2019-02-27T08:25:30.489Z,8.63
2019-02-27T08:28:03.222Z,6.85
2019-02-27T08:30:35.954Z,9.75
2019-02-27T08:33:09.343Z,9.55
2019-02-27T08:35:41.884Z,10.47
2019-02-27T08:38:15.439Z,8.88
2019-02-27T08:40:48.286Z,9.73
2019-02-27T08:43:21.143Z,9.45
2019-02-27T08:45:54.279Z,11.38
2019-02-27T08:50:58.640Z,10.55
2019-02-27T08:56:03.179Z,11.03
2019-02-27T08:58:36.860Z,11.10
2019-02-27T09:01:11.587Z,10.10
2019-02-27T09:03:44.982Z,10.70
2019-02-27T09:06:18.731Z,11.53
2019-02-27T09:08:51.415Z,11.80
2019-02-27T09:11:23.821Z,12.07
2019-02-27T09:13:56.843Z,11.95
2019-02-27T09:16:29.589Z,10.48
2019-02-27T09:19:02.312Z,10.32
2019-02-27T09:21:35.325Z,11.18
2019-02-27T09:24:08.117Z,10.38
2019-02-27T09:26:42.339Z,10.68
2019-02-27T09:29:18.591Z,10.55
2019-02-27T09:31:51.205Z,7.08
2019-02-27T09:34:26.651Z,9.40
2019-02-27T09:36:59.097Z,11.12
2019-02-27T09:39:32.565Z,11.50
2019-02-27T09:42:05.127Z,9.63
2019-02-27T09:44:38.185Z,7.90
2019-02-27T09:47:10.676Z,10.08
2019-02-27T09:49:43.863Z,9.25
2019-02-27T09:52:16.592Z,10.23
2019-02-27T09:54:50.115Z,9.93
2019-02-27T09:57:24.124Z,9.93
2019-02-27T09:59:57.551Z,9.98
2019-02-27T10:02:30.080Z,10.45
2019-02-27T10:05:03.780Z,9.95
2019-02-27T10:07:37.810Z,8.60
2019-02-27T10:10:11.039Z,9.80
2019-02-27T10:12:43.969Z,9.33
2019-02-27T10:15:17.090Z,9.05
2019-02-27T10:17:49.554Z,11.38
2019-02-27T10:20:22.630Z,9.50
2019-02-27T10:22:55.641Z,9.03
2019-02-27T10:25:28.160Z,10.15
2019-02-27T10:28:04.315Z,9.95
2019-02-27T10:30:37.237Z,8.60
2019-02-27T10:33:11.114Z,7.95
2019-02-27T10:35:44.419Z,9.35
2019-02-27T10:38:17.203Z,8.78
2019-02-27T10:40:50.575Z,7.65
2019-02-27T10:43:24.461Z,7.30
2019-02-27T10:45:57.414Z,9.18
2019-02-27T10:48:31.130Z,7.70
2019-02-27T10:51:03.795Z,8.25
2019-02-27T10:53:37.582Z,7.37
2019-02-27T10:56:10.233Z,8.03
2019-02-27T10:58:45.026Z,7.05
2019-02-27T11:01:18.608Z,7.62
2019-02-27T11:03:51.699Z,9.10
2019-02-27T11:06:33.483Z,6.08
2019-02-27T11:09:04.473Z,6.87
2019-02-27T11:11:35.016Z,6.55
2019-02-27T11:16:39.787Z,5.20
2019-02-27T11:21:45.875Z,5.95
2019-02-27T11:26:49.975Z,5.00
2019-02-27T11:29:23.836Z,5.97
2019-02-27T11:31:57.484Z,6.50
2019-02-27T11:34:31.292Z,6.67
2019-02-27T11:37:04.416Z,6.62
2019-02-27T11:39:37.927Z,7.90
2019-02-27T11:42:11.681Z,7.35
2019-02-27T11:44:49.466Z,8.70
2019-02-27T11:47:19.223Z,7.67
2019-02-27T11:49:52.622Z,7.17
2019-02-27T11:52:28.679Z,7.40
2019-02-27T11:55:00.537Z,7.07
2019-02-27T11:57:33.613Z,7.05
2019-02-27T12:00:08.052Z,7.87
2019-02-27T12:02:40.315Z,7.15
2019-02-27T12:05:14.765Z,5.90
2019-02-27T12:07:50.572Z,6.77
2019-02-27T12:10:24.073Z,5.30
2019-02-27T12:13:00.731Z,6.20
2019-02-27T12:15:32.107Z,7.03
2019-02-27T12:18:05.423Z,6.07
2019-02-27T12:20:39.088Z,6.23
2019-02-27T12:23:12.007Z,5.93
2019-02-27T12:25:45.438Z,5.63
2019-02-27T12:28:19.670Z,6.00
2019-02-27T12:30:52.777Z,6.20
2019-02-27T12:33:29.214Z,5.27
2019-02-27T12:36:00.701Z,5.87
2019-02-27T12:38:34.383Z,5.10
2019-02-27T12:41:07.465Z,5.33
2019-02-27T12:43:39.921Z,7.40
2019-02-27T12:46:13.661Z,4.60
2019-02-27T12:48:47.089Z,5.90
2019-02-27T12:51:21.093Z,6.27
2019-02-27T12:53:54.616Z,4.73
2019-02-27T12:56:28.442Z,4.90
2019-02-27T12:59:01.394Z,4.57
2019-02-27T13:01:33.865Z,4.87
2019-02-27T13:04:07.297Z,4.42
2019-02-27T13:06:39.422Z,4.45
2019-02-27T13:09:12.522Z,2.37
2019-02-27T13:11:46.364Z,2.47
2019-02-27T13:14:19.670Z,2.33
2019-02-27T13:16:52.372Z,2.90
2019-02-27T13:21:57.008Z,2.70
2019-02-27T13:24:30.042Z,3.95
2019-02-27T13:27:03.720Z,4.23
2019-02-27T13:29:37.835Z,3.83
2019-02-27T13:32:10.828Z,4.47
2019-02-27T13:34:45.342Z,4.10
2019-02-27T13:37:18.776Z,3.80
2019-02-27T13:39:51.953Z,4.37
2019-02-27T13:42:24.326Z,4.50
2019-02-27T13:44:57.595Z,3.60
2019-02-27T13:47:31.677Z,2.77
2019-02-27T13:50:04.391Z,3.37
2019-02-27T13:52:37.096Z,3.23
2019-02-27T13:55:11.144Z,3.90
2019-02-27T13:57:45.340Z,3.60
2019-02-27T14:00:27.884Z,3.73
2019-02-27T14:03:01.679Z,3.42
2019-02-27T14:05:36.151Z,3.58
2019-02-27T14:08:09.420Z,3.77
2019-02-27T14:10:42.398Z,3.80
2019-02-27T14:13:15.874Z,4.20
2019-02-27T14:15:49.380Z,3.60
2019-02-27T14:18:22.053Z,3.80
2019-02-27T14:23:27.314Z,3.25
2019-02-27T14:26:00.081Z,3.75
2019-02-27T14:28:32.831Z,3.37
2019-02-27T14:31:09.066Z,3.72
2019-02-27T14:33:40.499Z,3.77
2019-02-27T14:36:15.460Z,3.70
2019-02-27T14:38:48.537Z,3.33
2019-02-27T14:41:21.608Z,3.70
2019-02-27T14:43:57.637Z,4.23
2019-02-27T14:46:29.670Z,3.67
2019-02-27T14:49:02.717Z,3.80
2019-02-27T14:51:35.511Z,3.87
2019-02-27T14:54:08.767Z,4.03
2019-02-27T14:56:42.705Z,4.33
2019-02-27T14:59:16.256Z,3.90
2019-02-27T15:01:49.439Z,3.63
2019-02-27T15:04:22.453Z,3.67
2019-02-27T15:06:55.842Z,4.10
2019-02-27T15:09:36.512Z,3.47
2019-02-27T15:12:10.291Z,4.37
2019-02-27T15:14:43.083Z,3.53
2019-02-27T15:17:15.887Z,4.60
2019-02-27T15:22:21.255Z,4.03
2019-02-27T15:24:53.612Z,4.15
2019-02-27T15:27:27.650Z,4.55
2019-02-27T15:30:01.298Z,4.90
2019-02-27T15:32:33.689Z,4.90
2019-02-27T15:35:08.153Z,3.65
2019-02-27T15:37:41.669Z,4.50
2019-02-27T15:40:17.422Z,4.00
2019-02-27T15:42:49.976Z,3.67
2019-02-27T15:45:23.349Z,4.65
2019-02-27T15:47:56.417Z,4.15
2019-02-27T15:50:29.003Z,4.28
2019-02-27T15:55:35.229Z,4.15
2019-02-27T15:58:08.529Z,4.15
2019-02-27T16:00:41.334Z,4.37
2019-02-27T16:03:14.183Z,4.42
2019-02-27T16:05:46.557Z,4.10
2019-02-27T16:08:20.199Z,4.28
2019-02-27T16:10:55.253Z,3.62
2019-02-27T16:13:28.417Z,4.22
2019-02-27T16:16:01.522Z,4.08
2019-02-27T16:18:36.949Z,4.37
2019-02-27T16:21:09.443Z,4.30
2019-02-27T16:26:14.270Z,3.40
2019-02-27T16:28:48.993Z,3.27
2019-02-27T16:31:23.747Z,4.27
2019-02-27T16:33:58.538Z,3.97
2019-02-27T16:36:36.241Z,3.97
2019-02-27T16:39:09.911Z,3.80
2019-02-27T16:41:45.156Z,4.60
2019-02-27T16:44:21.511Z,4.07
2019-02-27T16:46:52.442Z,3.37
2019-02-27T16:49:25.000Z,4.10
2019-02-27T16:51:57.878Z,4.00
2019-02-27T16:54:31.885Z,3.87
2019-02-27T16:57:05.417Z,4.00
2019-02-27T16:59:39.206Z,4.60
2019-02-27T17:02:11.909Z,4.05
2019-02-27T17:04:45.608Z,4.85
2019-02-27T17:07:18.868Z,5.30
2019-02-27T17:12:23.499Z,4.47
2019-02-27T17:14:58.636Z,4.87
2019-02-27T17:17:31.828Z,4.72
2019-02-27T17:20:04.765Z,3.67
2019-02-27T17:22:37.891Z,4.33
2019-02-27T17:25:12.142Z,4.83
2019-02-27T17:27:49.819Z,4.08
2019-02-27T17:30:25.728Z,4.03
2019-02-27T17:33:01.446Z,3.83
2019-02-27T17:35:33.953Z,4.83
2019-02-27T17:38:06.879Z,3.45
2019-02-27T17:40:41.655Z,4.00
2019-02-27T17:43:14.323Z,3.42
2019-02-27T17:45:48.048Z,4.28
2019-02-27T17:48:21.145Z,4.40
2019-02-27T17:50:53.872Z,3.77
2019-02-27T17:53:26.787Z,3.85
2019-02-27T17:55:59.881Z,3.45
2019-02-27T18:01:07.408Z,3.27
2019-02-27T18:03:41.847Z,3.58
2019-02-27T18:06:15.144Z,4.17
2019-02-27T18:08:51.562Z,3.37
2019-02-27T18:11:23.146Z,3.27
2019-02-27T18:13:56.159Z,3.30
2019-02-27T18:16:29.945Z,3.00
2019-02-27T18:19:07.027Z,3.77
2019-02-27T18:21:40.027Z,3.27
2019-02-27T18:24:13.730Z,3.75
2019-02-27T18:26:50.221Z,3.80
2019-02-27T18:29:22.526Z,4.20
2019-02-27T18:31:58.712Z,3.57
2019-02-27T18:34:31.068Z,3.75
2019-02-27T18:37:05.106Z,5.35
2019-02-27T18:39:38.699Z,5.55
2019-02-27T18:42:12.146Z,4.42
2019-02-27T18:47:16.717Z,4.37
2019-02-27T18:49:52.295Z,4.17
2019-02-27T18:52:24.834Z,4.20
2019-02-27T18:54:57.854Z,4.00
2019-02-27T19:00:03.278Z,3.98
2019-02-27T19:02:36.324Z,3.55
2019-02-27T19:05:10.108Z,4.15
2019-02-27T19:07:43.620Z,4.83
2019-02-27T19:12:48.393Z,3.10
2019-02-27T19:15:22.555Z,4.62
2019-02-27T19:17:55.334Z,4.75
2019-02-27T19:20:30.071Z,4.90
2019-02-27T19:23:03.490Z,5.45
2019-02-27T19:25:36.638Z,4.10
2019-02-27T19:28:09.968Z,5.25
2019-02-27T19:30:42.934Z,5.08
2019-02-27T19:33:16.326Z,4.35
2019-02-27T19:35:50.426Z,5.20
2019-02-27T19:38:24.702Z,4.83
2019-02-27T19:40:58.287Z,5.53
2019-02-27T19:46:02.599Z,3.55
2019-02-27T19:48:35.320Z,5.35
2019-02-27T19:51:08.050Z,5.80
2019-02-27T19:53:42.751Z,4.37
2019-02-27T19:56:16.610Z,6.50
2019-02-27T19:58:53.585Z,6.40
2019-02-27T20:01:34.978Z,5.67
2019-02-27T20:04:09.605Z,5.37
2019-02-27T20:06:45.206Z,6.47
2019-02-27T20:09:20.531Z,5.12
2019-02-27T20:11:55.775Z,5.58
2019-02-27T20:14:29.525Z,4.40
2019-02-27T20:17:04.750Z,4.40
2019-02-27T20:19:37.490Z,5.67
2019-02-27T20:22:15.479Z,4.33
2019-02-27T20:24:46.964Z,4.45
2019-02-27T20:29:53.276Z,4.42
2019-02-27T20:32:28.550Z,5.75
2019-02-27T20:35:02.170Z,6.53
2019-02-27T20:37:41.464Z,8.08
2019-02-27T20:40:15.864Z,7.78
2019-02-27T20:42:52.092Z,7.00
2019-02-27T20:45:26.610Z,8.28
2019-02-27T20:48:02.528Z,8.08
2019-02-27T20:50:39.962Z,9.03
2019-02-27T20:53:13.503Z,7.40
2019-02-27T20:55:46.246Z,6.47
2019-02-27T20:58:22.015Z,6.70
2019-02-27T21:00:54.844Z,7.40
2019-02-27T21:06:01.820Z,3.02
2019-02-27T21:08:36.100Z,7.00
2019-02-27T21:11:11.905Z,7.53
2019-02-27T21:13:49.595Z,7.42
2019-02-27T21:16:22.689Z,8.45
2019-02-27T21:18:56.094Z,7.17
2019-02-27T21:21:29.747Z,6.35
2019-02-27T21:24:06.239Z,7.80
2019-02-27T21:26:38.603Z,6.55
2019-02-27T21:29:12.356Z,6.33
2019-02-27T21:31:45.760Z,6.85
2019-02-27T21:34:20.042Z,6.42
2019-02-27T21:36:52.611Z,7.25
2019-02-27T21:39:25.376Z,6.92
2019-02-27T21:41:58.996Z,6.95
2019-02-27T21:44:31.599Z,6.87
2019-02-27T21:47:04.958Z,8.03
2019-02-27T21:49:39.841Z,7.80
2019-02-27T21:52:14.562Z,6.80
2019-02-27T21:54:48.157Z,6.95
2019-02-27T21:59:52.253Z,5.97
2019-02-27T22:02:27.291Z,7.03
2019-02-27T22:05:00.302Z,7.35
2019-02-27T22:07:34.297Z,6.17
2019-02-27T22:10:09.601Z,7.00
2019-02-27T22:12:43.818Z,6.45
2019-02-27T22:15:22.986Z,5.97
2019-02-27T22:17:56.156Z,7.08
2019-02-27T22:20:28.964Z,6.40
2019-02-27T22:23:03.365Z,7.75
2019-02-27T22:25:36.066Z,7.28
2019-02-27T22:28:09.516Z,7.27
2019-02-27T22:30:42.227Z,7.42
2019-02-27T22:33:23.036Z,7.00
2019-02-27T22:36:02.225Z,7.75
2019-02-27T22:38:37.824Z,7.55
2019-02-27T22:41:11.103Z,7.27
2019-02-27T22:43:44.606Z,7.50
2019-02-27T22:46:17.669Z,7.03
2019-02-27T22:48:50.634Z,7.20
2019-02-27T22:51:23.288Z,7.45
2019-02-27T22:53:55.898Z,7.75
2019-02-27T22:56:29.191Z,7.50
2019-02-27T23:01:51.746Z,6.10
2019-02-27T23:04:25.062Z,6.67
2019-02-27T23:06:57.493Z,6.33
2019-02-27T23:09:30.341Z,7.10
2019-02-27T23:12:02.887Z,6.75
2019-02-27T23:14:35.275Z,7.37
2019-02-27T23:17:07.862Z,5.87
2019-02-27T23:19:40.397Z,6.25
2019-02-27T23:22:12.876Z,6.53
2019-02-27T23:24:45.584Z,5.35
2019-02-27T23:27:18.132Z,6.17
2019-02-27T23:29:50.681Z,6.50
2019-02-27T23:32:28.414Z,6.80
2019-02-27T23:34:58.209Z,8.17
2019-02-27T23:40:02.839Z,5.22
2019-02-27T23:42:36.683Z,7.03
2019-02-27T23:45:10.095Z,6.47
2019-02-27T23:47:43.215Z,6.87
2019-02-27T23:50:15.648Z,7.78
2019-02-27T23:52:49.380Z,8.00
2019-02-27T23:55:23.663Z,5.87
2019-02-27T23:57:58.573Z,7.40
